Time;durP1;ratioP1;P1;durP2;ratioP2;P2;SDS_P1;SDS_P2;PMS_P1;PMS_P2;Temp;Humidity;BMP_temperature;BMP_pressure;BME280_temperature;BME280_humidity;BME280_pressure;Samples;Min_cycle;Max_cycle;Signal;HPM_P1;HPM_P2
2022/07/12 00:00:26;;;;;;;1.98;1.88;;;;;;;12.76;100.00;163901.38;5019912;28;20528;-64
2022/07/12 00:02:51;;;;;;;2.72;2.53;;;;;;;12.72;100.00;163890.59;5022676;28;20033;-63
2022/07/12 00:05:16;;;;;;;2.65;2.47;;;;;;;12.73;100.00;163891.94;5018783;28;20046;-64
2022/07/12 00:07:42;;;;;;;2.80;2.60;;;;;;;12.73;100.00;163891.94;5021225;28;20018;-64
2022/07/12 00:10:08;;;;;;;4.35;2.42;;;;;;;12.69;100.00;163883.84;5021147;28;20042;-67
2022/07/12 00:12:33;;;;;;;2.40;2.22;;;;;;;12.66;100.00;163875.72;5021541;28;20030;-65
2022/07/12 00:14:59;;;;;;;42.35;4.95;;;;;;;12.65;100.00;163871.69;5020119;28;20099;-65
2022/07/12 00:17:24;;;;;;;68.20;4.38;;;;;;;12.58;100.00;163854.09;5021236;28;20025;-65
2022/07/12 00:19:50;;;;;;;4.53;1.83;;;;;;;12.54;100.00;163843.28;5019588;28;20038;-65
2022/07/12 00:22:16;;;;;;;2.00;1.90;;;;;;;12.27;100.00;163771.66;5021849;28;20022;-65
2022/07/12 00:24:41;;;;;;;2.38;1.90;;;;;;;12.47;100.00;163825.72;5020712;28;20388;-65
2022/07/12 00:27:07;;;;;;;2.53;2.33;;;;;;;12.43;100.00;163814.91;5020451;28;20021;-65
2022/07/12 00:29:32;;;;;;;3.42;2.72;;;;;;;12.42;100.00;163812.22;5020707;28;20059;-65
2022/07/12 00:31:57;;;;;;;2.42;2.22;;;;;;;12.43;100.00;163813.53;5018840;28;20026;-65
2022/07/12 00:34:23;;;;;;;2.95;2.75;;;;;;;12.40;100.00;163805.47;5020472;28;20018;-64
2022/07/12 00:36:48;;;;;;;3.20;2.78;;;;;;;12.36;100.00;163796.00;5021166;28;20065;-65
2022/07/12 00:39:14;;;;;;;2.63;2.35;;;;;;;12.30;100.00;163781.13;5020656;28;20017;-65
2022/07/12 00:41:39;;;;;;;2.20;2.08;;;;;;;12.21;100.00;163756.78;5019740;28;20037;-65
2022/07/12 00:44:04;;;;;;;2.58;2.47;;;;;;;12.16;100.00;163743.31;5020177;28;20017;-65
2022/07/12 00:46:31;;;;;;;2.65;2.45;;;;;;;12.13;100.00;163736.56;5020461;28;20396;-64
2022/07/12 00:48:56;;;;;;;3.13;2.92;;;;;;;12.12;100.00;163732.47;5021492;28;20024;-65
2022/07/12 00:51:22;;;;;;;2.83;2.55;;;;;;;12.13;100.00;163735.16;5019043;28;20477;-65
2022/07/12 00:53:50;;;;;;;7.53;4.30;;;;;;;12.08;100.00;163721.69;5021865;28;20026;-66
2022/07/12 00:56:15;;;;;;;1.87;1.77;;;;;;;12.05;100.00;163716.25;5019236;28;20033;-66
2022/07/12 00:58:42;;;;;;;1.67;1.58;;;;;;;12.02;100.00;163706.81;5020233;28;20018;-66
2022/07/12 01:01:09;;;;;;;2.65;2.45;;;;;;;11.96;100.00;163691.88;5019968;28;20037;-66
2022/07/12 01:03:34;;;;;;;2.17;2.00;;;;;;;11.92;100.00;163681.09;5020871;28;20025;-66
2022/07/12 01:06:00;;;;;;;42.97;3.67;;;;;;;11.89;100.00;163674.34;5019468;28;20029;-66
2022/07/12 01:08:27;;;;;;;1.83;1.73;;;;;;;11.86;100.00;163664.91;5021638;28;20155;-66
2022/07/12 01:10:52;;;;;;;10.02;2.40;;;;;;;11.67;100.00;163616.22;5014305;28;20507;-66
2022/07/12 01:13:18;;;;;;;32.25;2.88;;;;;;;11.64;100.00;163608.16;5000608;28;20029;-66
2022/07/12 01:15:44;;;;;;;2.05;1.95;;;;;;;11.77;100.00;163640.56;5009130;28;20038;-66
2022/07/12 01:18:10;;;;;;;2.25;2.05;;;;;;;11.69;100.00;163621.66;5019599;28;20143;-66
2022/07/12 01:20:35;;;;;;;2.67;2.47;;;;;;;11.78;100.00;163643.28;5019213;28;20037;-66
2022/07/12 01:23:01;;;;;;;2.30;2.20;;;;;;;11.78;100.00;163643.28;5020961;28;20029;-66
2022/07/12 01:25:27;;;;;;;2.88;2.72;;;;;;;11.73;100.00;163632.44;5018327;28;20045;-66
2022/07/12 01:27:52;;;;;;;3.17;1.75;;;;;;;11.62;100.00;163602.75;5021364;28;20412;-66
2022/07/12 01:30:18;;;;;;;1.73;1.63;;;;;;;11.66;100.00;163612.19;5018277;28;20485;-66
2022/07/12 01:32:44;;;;;;;2.10;2.00;;;;;;;11.50;100.00;163570.34;5019866;28;20027;-66
2022/07/12 01:35:10;;;;;;;5.38;2.10;;;;;;;11.65;100.00;163610.88;5019833;28;20033;-66
2022/07/12 01:37:38;;;;;;;5.50;1.33;;;;;;;11.64;100.00;163608.16;5020198;28;20022;-66
2022/07/12 01:40:09;;;;;;;10.38;1.50;;;;;;;11.61;100.00;163598.72;5019268;28;20109;-66
2022/07/12 01:42:35;;;;;;;1.42;1.38;;;;;;;11.56;100.00;163586.53;5018023;28;20022;-66
2022/07/12 01:45:01;;;;;;;1.70;1.60;;;;;;;11.39;100.00;163542.00;5018458;28;20108;-67
2022/07/12 01:47:30;;;;;;;1.70;1.60;;;;;;;11.51;100.00;163573.00;5021657;28;20022;-67
2022/07/12 01:49:56;;;;;;;2.35;2.05;;;;;;;11.45;100.00;163558.19;5017819;28;20061;-66
2022/07/12 01:52:22;;;;;;;2.28;2.15;;;;;;;11.27;100.00;163510.94;5019352;28;20099;-66
2022/07/12 01:54:47;;;;;;;5.57;2.53;;;;;;;11.40;100.00;163544.66;5020029;28;20038;-66
2022/07/12 01:57:13;;;;;;;1.17;1.10;;;;;;;11.39;100.00;163542.00;5019743;28;20385;-66
2022/07/12 01:59:39;;;;;;;16.85;2.10;;;;;;;11.35;100.00;163532.53;5018082;28;20111;-64
2022/07/12 02:02:06;;;;;;;1.25;1.25;;;;;;;11.16;100.00;163481.19;5017460;28;20053;-65
2022/07/12 02:04:32;;;;;;;18.55;1.80;;;;;;;11.24;100.00;163504.13;5015700;28;20016;-65
2022/07/12 02:06:57;;;;;;;8.65;1.65;;;;;;;11.21;100.00;163494.69;5020124;28;20034;-66
2022/07/12 02:09:23;;;;;;;1.58;1.48;;;;;;;11.17;100.00;163483.91;5019343;28;20025;-65
2022/07/12 02:11:48;;;;;;;1.30;1.30;;;;;;;11.02;100.00;163446.09;5017709;28;20030;-65
2022/07/12 02:14:14;;;;;;;83.45;4.60;;;;;;;11.11;100.00;163469.03;5020271;28;20057;-66
2022/07/12 02:16:40;;;;;;;2.25;1.20;;;;;;;11.04;100.00;163451.50;5019167;28;20097;-65
2022/07/12 02:19:06;;;;;;;7.68;1.60;;;;;;;11.00;100.00;163439.34;5018965;28;20030;-65
2022/07/12 02:21:33;;;;;;;42.10;3.40;;;;;;;10.95;100.00;163427.19;5019764;28;20090;-66
2022/07/12 02:23:59;;;;;;;48.20;2.80;;;;;;;10.92;100.00;163419.06;5018505;28;20014;-65
2022/07/12 02:26:25;;;;;;;1.95;1.85;;;;;;;10.87;100.00;163405.59;5017637;28;20037;-66
2022/07/12 02:28:50;;;;;;;29.02;2.40;;;;;;;10.86;100.00;163402.88;5021117;28;20052;-66
2022/07/12 02:31:16;;;;;;;23.02;1.80;;;;;;;10.83;100.00;163394.81;5020409;28;20034;-64
2022/07/12 02:33:41;;;;;;;23.08;1.85;;;;;;;10.79;100.00;163386.69;5023413;28;20025;-64
2022/07/12 02:36:07;;;;;;;3.00;1.20;;;;;;;10.74;100.00;163373.22;5020749;28;20034;-64
2022/07/12 02:38:32;;;;;;;11.80;1.42;;;;;;;10.64;100.00;163346.19;5022593;28;20049;-64
2022/07/12 02:40:57;;;;;;;2.80;1.35;;;;;;;10.67;100.00;163352.94;5022541;28;20037;-66
2022/07/12 02:43:25;;;;;;;6.15;2.47;;;;;;;10.65;100.00;163347.56;5024443;28;20010;-66
2022/07/12 02:45:51;;;;;;;6.05;2.00;;;;;;;10.64;100.00;163346.19;5020701;28;20041;-66
2022/07/12 02:48:17;;;;;;;32.42;2.60;;;;;;;10.62;100.00;163340.78;5023785;28;20021;-66
2022/07/12 02:50:43;;;;;;;26.52;2.72;;;;;;;10.43;100.00;163290.84;5020790;28;20069;-65
2022/07/12 02:53:09;;;;;;;63.53;4.57;;;;;;;10.54;100.00;163319.19;5021542;28;20377;-65
2022/07/12 02:55:34;;;;;;;38.65;3.10;;;;;;;10.38;100.00;163278.72;5022613;28;20045;-65
2022/07/12 02:58:00;;;;;;;76.07;3.10;;;;;;;10.44;100.00;163294.91;5023742;28;20092;-65
2022/07/12 03:00:26;;;;;;;62.65;2.97;;;;;;;10.41;100.00;163285.47;5018643;28;20413;-65
2022/07/12 03:02:51;;;;;;;29.60;2.55;;;;;;;10.37;100.00;163276.03;5019959;28;20014;-65
2022/07/12 03:05:17;;;;;;;18.65;2.22;;;;;;;10.35;100.00;163270.56;5020427;28;20567;-65
2022/07/12 03:07:42;;;;;;;41.42;3.13;;;;;;;10.32;100.00;163262.44;5022363;28;20079;-65
2022/07/12 03:10:08;;;;;;;1.80;1.70;;;;;;;10.28;100.00;163251.66;5022411;28;20033;-65
2022/07/12 03:12:34;;;;;;;1.60;1.50;;;;;;;10.24;100.00;163240.91;5022318;28;20022;-67
2022/07/12 03:14:59;;;;;;;4.72;2.58;;;;;;;10.26;100.00;163246.25;5021064;28;20030;-67
2022/07/12 03:17:25;;;;;;;2.10;2.00;;;;;;;10.11;100.00;163208.47;5023708;28;20021;-67
2022/07/12 03:19:50;;;;;;;3.28;2.85;;;;;;;10.22;100.00;163235.47;5017928;28;20049;-67
2022/07/12 03:22:15;;;;;;;3.80;2.08;;;;;;;10.23;100.00;163238.19;5022813;28;20022;-67
2022/07/12 03:24:41;;;;;;;3.40;3.17;;;;;;;10.25;100.00;162962.00;5018425;28;20014;-67
2022/07/12 03:27:06;;;;;;;3.00;2.80;;;;;;;10.27;100.00;162484.38;5023003;28;20634;-67
2022/07/12 03:29:32;;;;;;;2.95;2.75;;;;;;;10.29;100.00;161863.25;5022955;28;20013;-67
2022/07/12 03:31:57;;;;;;;3.40;3.10;;;;;;;10.31;100.00;161286.34;5023363;28;20034;-68
2022/07/12 03:34:22;;;;;;;3.00;2.80;;;;;;;10.31;100.00;160679.31;4993414;28;20026;-67
2022/07/12 03:36:48;;;;;;;3.38;3.17;;;;;;;10.33;100.00;160044.50;4991936;28;20034;-67
2022/07/12 03:39:13;;;;;;;3.60;2.28;;;;;;;10.33;100.00;159939.69;4993549;28;20026;-67
2022/07/12 03:41:39;;;;;;;2.75;2.55;;;;;;;10.32;100.00;160229.47;4992030;28;20046;-67
2022/07/12 03:44:05;;;;;;;3.80;3.50;;;;;;;10.35;100.00;160011.19;4993025;28;20026;-66
2022/07/12 03:46:32;;;;;;;3.13;2.83;;;;;;;10.37;100.00;158984.84;4993336;28;20129;-66
2022/07/12 03:48:58;;;;;;;8.75;3.17;;;;;;;10.42;100.00;157448.03;4993519;28;20068;-60
2022/07/12 03:51:24;;;;;;;3.83;3.53;;;;;;;10.46;100.00;155886.88;4991533;28;20049;-65
2022/07/12 03:53:49;;;;;;;2.80;2.60;;;;;;;10.48;100.00;154832.38;4993386;28;20401;-65
2022/07/12 03:57:13;;;;;;;14.73;4.00;;;;;;;10.47;100.00;155182.59;4991877;28;20057;-65
2022/07/12 03:59:00;;;;;;;7.18;3.63;;;;;;;10.42;100.00;157288.09;4993059;28;20034;-65
2022/07/12 04:01:25;;;;;;;8.38;4.95;;;;;;;10.41;100.00;158578.84;4992902;28;20081;-66
2022/07/12 04:03:51;;;;;;;4.35;3.95;;;;;;;10.44;100.00;159119.09;4993254;28;20018;-65
2022/07/12 04:06:16;;;;;;;5.35;3.67;;;;;;;10.44;100.00;159607.41;4991351;28;20042;-66
2022/07/12 04:08:41;;;;;;;5.05;4.55;;;;;;;10.46;100.00;159705.13;4993200;28;20026;-66
2022/07/12 04:11:07;;;;;;;4.55;4.25;;;;;;;10.48;100.00;159206.84;4991602;28;20536;-64
2022/07/12 04:13:33;;;;;;;4.95;4.30;;;;;;;10.53;100.00;158047.72;5002972;28;20426;-62
2022/07/12 04:15:58;;;;;;;3.58;3.22;;;;;;;10.57;100.00;156618.50;5021109;28;20124;-62
2022/07/12 04:18:24;;;;;;;7.78;4.35;;;;;;;10.59;100.00;155917.81;5019159;28;20470;-62
2022/07/12 04:20:49;;;;;;;5.22;4.75;;;;;;;10.64;100.00;155224.84;5020647;28;20177;-62
2022/07/12 04:23:14;;;;;;;6.10;4.30;;;;;;;10.71;100.00;153831.31;5015927;28;20025;-62
2022/07/12 04:25:40;;;;;;;4.75;3.30;;;;;;;10.74;100.00;153837.66;5019999;28;20046;-62
2022/07/12 04:28:05;;;;;;;4.78;4.30;;;;;;;10.75;100.00;154547.19;5005429;28;20054;-62
2022/07/12 04:30:31;;;;;;;2.85;2.65;;;;;;;10.74;100.00;156309.41;4991537;28;20042;-62
2022/07/12 04:32:56;;;;;;;5.05;3.67;;;;;;;10.72;100.00;159018.94;4992509;28;20033;-61
2022/07/12 04:35:21;;;;;;;4.82;4.43;;;;;;;10.74;100.00;161094.59;4990648;28;20053;-62
2022/07/12 04:37:46;;;;;;;6.55;6.05;;;;;;;10.77;100.00;161759.81;4992715;28;20033;-61
2022/07/12 04:40:12;;;;;;;7.47;6.72;;;;;;;10.81;100.00;161414.31;4999328;28;20524;-62
2022/07/12 04:42:37;;;;;;;6.13;5.60;;;;;;;10.75;100.00;159992.91;5011989;28;20408;-61
2022/07/12 04:45:03;;;;;;;6.75;6.05;;;;;;;10.99;100.00;156724.47;5010627;28;20493;-61
2022/07/12 04:47:29;;;;;;;7.68;7.07;;;;;;;11.14;100.00;152171.75;5012054;28;20390;-61
2022/07/12 04:49:54;;;;;;;11.60;10.60;;;;;;;11.28;100.00;147972.00;5010355;28;20037;-62
2022/07/12 04:52:19;;;;;;;13.13;11.95;;;;;;;11.41;100.00;143773.41;5011954;28;20021;-62
2022/07/12 04:54:46;;;;;;;13.52;12.23;;;;;;;11.57;100.00;140287.22;5009560;28;20045;-62
2022/07/12 04:57:11;;;;;;;15.02;13.63;;;;;;;11.77;100.00;136456.97;5011327;28;20079;-63
2022/07/12 04:59:37;;;;;;;16.15;14.50;;;;;;;11.90;100.00;132616.00;5010580;28;20037;-62
2022/07/12 05:02:02;;;;;;;17.75;16.15;;;;;;;12.04;100.00;129482.00;5011716;28;20018;-63
2022/07/12 05:04:30;;;;;;;16.73;15.13;;;;;;;12.20;100.00;126352.00;5010228;28;20026;-62
2022/07/12 05:06:56;;;;;;;17.50;15.82;;;;;;;12.33;100.00;124269.13;5012096;28;20060;-62
2022/07/12 05:09:21;;;;;;;14.73;13.43;;;;;;;12.45;100.00;122185.50;5011466;28;20022;-62
2022/07/12 05:11:47;;;;;;;17.77;16.15;;;;;;;12.38;100.00;120418.72;5010181;28;20045;-62
2022/07/12 05:14:12;;;;;;;17.55;15.95;;;;;;;12.44;100.00;118674.34;5011245;28;20030;-63
2022/07/12 05:16:38;;;;;;;16.88;15.23;;;;;;;12.79;100.00;116985.72;5010265;28;20045;-62
2022/07/12 05:19:03;;;;;;;17.67;16.00;;;;;;;12.91;100.00;115605.31;5010071;28;20026;-62
2022/07/12 05:21:28;;;;;;;17.25;15.55;;;;;;;13.04;100.00;114224.81;5009890;28;20539;-62
2022/07/12 05:23:54;;;;;;;16.05;14.65;;;;;;;13.12;100.00;112836.88;5011462;28;20033;-62
2022/07/12 05:26:19;;;;;;;15.02;13.75;;;;;;;13.24;100.00;111806.00;5009930;28;20041;-62
2022/07/12 05:28:44;;;;;;;17.83;16.05;;;;;;;13.37;100.00;110427.09;5011168;28;20383;-63
2022/07/12 05:31:11;;;;;;;15.73;14.30;;;;;;;13.49;100.00;109746.56;5009837;28;20095;-62
2022/07/12 05:33:36;;;;;;;14.95;13.65;;;;;;;13.61;100.00;109066.72;5011173;28;20108;-63
2022/07/12 05:36:01;;;;;;;16.75;15.10;;;;;;;13.75;100.00;108037.88;5009318;28;20073;-59
2022/07/12 05:38:27;;;;;;;14.77;13.40;;;;;;;13.91;100.00;107013.22;5011297;28;20112;-59
2022/07/12 05:40:52;;;;;;;13.60;12.40;;;;;;;14.02;100.00;106330.22;5008829;28;20038;-59
2022/07/12 05:43:17;;;;;;;13.05;11.85;;;;;;;14.15;100.00;105300.81;5013121;28;20040;-59
2022/07/12 05:45:43;;;;;;;12.10;11.07;;;;;;;14.28;100.00;104271.22;5009934;28;20104;-59
2022/07/12 05:48:08;;;;;;;11.48;10.57;;;;;;;14.40;100.00;103939.25;5011000;28;20022;-59
2022/07/12 05:50:34;;;;;;;12.10;11.07;;;;;;;14.54;100.00;103260.69;5009608;28;20042;-59
2022/07/12 05:55:44;;;;;;;11.60;10.60;;;;;;;14.74;100.00;102942.66;5009939;28;20048;-58
2022/07/12 05:58:10;;;;;;;9.63;8.73;;;;;;;14.83;100.00;102606.09;5010574;28;20036;-59
2022/07/12 06:00:35;;;;;;;33.28;8.88;;;;;;;14.93;100.00;103323.53;5009920;28;20034;-59
2022/07/12 06:03:01;;;;;;;10.90;9.90;;;;;;;15.06;100.00;103345.28;5010854;28;20037;-58
2022/07/12 06:05:27;;;;;;;10.05;9.23;;;;;;;15.25;100.00;103024.41;5010690;28;20533;-59
2022/07/12 06:07:52;;;;;;;9.30;8.60;;;;;;;15.50;100.00;102363.97;5015119;28;20037;-59
2022/07/12 06:10:17;;;;;;;8.30;7.63;;;;;;;15.70;100.00;103449.13;5013415;28;20046;-59
2022/07/12 06:12:43;;;;;;;7.22;6.72;;;;;;;15.86;100.00;105936.28;5017211;28;20025;-58
2022/07/12 06:15:09;;;;;;;9.13;8.00;;;;;;;16.06;100.00;108078.72;5021752;28;20041;-59
2022/07/12 06:17:34;;;;;;;7.80;7.15;;;;;;;16.22;100.00;110570.34;5024089;28;20029;-59
2022/07/12 06:20:00;;;;;;;9.05;6.45;;;;;;;16.49;100.00;113438.41;5023296;28;20129;-59
2022/07/12 06:22:25;;;;;;;6.90;6.45;;;;;;;16.73;100.00;115244.72;5021488;28;20029;-58
2022/07/12 06:24:51;;;;;;;5.75;5.35;;;;;;;16.97;100.00;120939.75;5023136;28;20033;-59
2022/07/12 06:27:16;;;;;;;9.07;6.78;;;;;;;17.16;100.00;128407.47;5023611;28;20690;-59
2022/07/12 06:29:44;;;;;;;5.97;5.18;;;;;;;17.64;100.00;162149.97;5021498;28;20452;-58
2022/07/12 06:32:09;;;;;;;5.70;5.10;;;;;;;18.08;100.00;165295.97;5020536;28;20029;-59
2022/07/12 06:34:37;;;;;;;8.35;4.70;;;;;;;18.52;100.00;165411.19;5026305;28;20100;-59
2022/07/12 06:37:03;;;;;;;4.35;3.95;;;;;;;18.95;100.00;165523.81;5033899;28;20127;-65
2022/07/12 06:39:28;;;;;;;4.18;3.85;;;;;;;19.20;100.00;165588.94;5032903;28;20036;-58
2022/07/12 06:41:53;;;;;;;4.10;3.70;;;;;;;19.49;100.00;165667.66;5026662;28;20030;-58
2022/07/12 06:44:19;;;;;;;5.05;4.55;;;;;;;19.62;100.00;165701.53;5010179;28;20033;-58
2022/07/12 06:46:45;;;;;;;3.83;3.58;;;;;;;19.70;100.00;165720.53;4992971;28;20574;-58
2022/07/12 06:49:10;;;;;;;4.80;3.72;;;;;;;19.73;100.00;165728.69;5007425;28;20026;-60
2022/07/12 06:51:39;;;;;;;4.75;4.22;;;;;;;19.81;100.00;165750.41;4993878;28;20039;-59
2022/07/12 06:54:04;;;;;;;8.38;5.32;;;;;;;20.00;100.00;165799.28;4994019;28;20053;-60
2022/07/12 06:56:30;;;;;;;5.38;4.78;;;;;;;20.08;100.00;165822.38;4992698;28;20479;-59
2022/07/12 06:58:55;;;;;;;4.93;4.53;;;;;;;20.11;100.00;165829.16;4994294;28;20030;-59
2022/07/12 07:01:20;;;;;;;5.72;5.28;;;;;;;20.18;100.00;165848.16;4992716;28;20042;-59
2022/07/12 07:03:46;;;;;;;5.78;5.28;;;;;;;20.12;100.00;165831.88;4993938;28;20022;-59
2022/07/12 07:06:11;;;;;;;5.45;4.63;;;;;;;20.11;100.00;165829.16;4992749;28;20035;-59
2022/07/12 07:08:36;;;;;;;6.28;5.50;;;;;;;20.26;100.00;165868.50;4994266;28;20505;-59
2022/07/12 07:11:02;;;;;;;4.97;4.63;;;;;;;20.33;100.00;165887.50;4992323;28;20045;-60
2022/07/12 07:13:27;;;;;;;5.82;5.20;;;;;;;20.44;100.00;165916.00;4994087;28;20026;-60
2022/07/12 07:15:53;;;;;;;5.53;5.03;;;;;;;20.51;100.00;165935.06;4992399;28;20038;-58
2022/07/12 07:18:18;;;;;;;5.13;4.65;;;;;;;20.73;100.00;165992.13;4992680;28;20034;-58
2022/07/12 07:20:43;;;;;;;5.72;5.32;;;;;;;20.80;100.00;166011.13;4992553;28;20494;-58
2022/07/12 07:23:10;;;;;;;5.75;5.35;;;;;;;20.86;100.00;166027.41;4993849;28;20383;-58
2022/07/12 07:25:35;;;;;;;6.10;5.22;;;;;;;20.82;100.00;166015.19;4992430;28;20037;-58
2022/07/12 07:28:01;;;;;;;4.70;4.28;;;;;;;20.96;100.00;166051.88;5004846;28;20050;-58
2022/07/12 07:33:10;;;;;;;6.55;4.90;;;;;;;21.08;100.00;166084.44;5000765;28;20040;-58
2022/07/12 07:35:37;;;;;;;6.38;5.38;;;;;;;21.12;100.00;166095.28;5000590;28;20042;-58
2022/07/12 07:38:02;;;;;;;5.72;5.32;;;;;;;20.96;100.00;166051.88;4996638;28;20085;-58
2022/07/12 07:40:28;;;;;;;5.50;5.00;;;;;;;20.99;100.00;166059.97;5001348;28;20130;-58
2022/07/12 07:42:53;;;;;;;5.80;5.30;;;;;;;21.12;100.00;166093.94;5003126;28;20014;-58
2022/07/12 07:45:18;;;;;;;7.68;5.55;;;;;;;21.11;100.00;166092.56;5000030;28;20060;-58
2022/07/12 07:47:48;;;;;;;4.43;3.92;;;;;;;21.33;100.00;166149.63;5003310;28;20018;-58
2022/07/12 07:50:14;;;;;;;5.13;4.38;;;;;;;21.64;100.00;166231.13;5002185;28;20038;-58
2022/07/12 07:52:40;;;;;;;3.65;3.28;;;;;;;21.66;100.00;166236.59;5001651;28;20405;-58
2022/07/12 07:55:06;;;;;;;3.78;3.45;;;;;;;21.53;100.00;166203.94;5001336;28;20281;-58
2022/07/12 07:57:31;;;;;;;3.63;3.42;;;;;;;21.84;100.00;166284.13;5003501;28;20019;-58
2022/07/12 07:59:57;;;;;;;4.05;3.75;;;;;;;21.95;100.00;166312.66;5000287;28;20046;-58
2022/07/12 08:02:22;;;;;;;5.35;3.28;;;;;;;22.10;100.00;166353.41;4998650;28;20100;-58
2022/07/12 08:04:48;;;;;;;3.20;2.95;;;;;;;-146.58;100.00;69501.63;5001426;28;20037;-58
2022/07/12 08:07:13;;;;;;;3.83;3.53;;;;;;;-146.58;100.00;69501.63;5002882;28;20026;-58
2022/07/12 08:09:39;;;;;;;4.25;3.95;;;;;;;-146.58;100.00;69501.63;4999877;28;20026;-58
2022/07/12 08:12:05;;;;;;;3.63;3.33;;;;;;;-146.58;100.00;69501.63;5002732;28;20034;-58
2022/07/12 08:14:30;;;;;;;3.20;3.00;;;;;;;-146.58;100.00;69501.63;4999528;28;20109;-58
2022/07/12 08:16:56;;;;;;;2.92;2.72;;;;;;;23.29;100.00;166666.09;4997131;28;20025;-59
2022/07/12 08:19:21;;;;;;;2.97;2.78;;;;;;;23.81;100.00;166802.03;4987900;28;20034;-58
2022/07/12 08:21:46;;;;;;;7.60;3.05;;;;;;;24.30;100.00;166932.66;4991432;28;20092;-59
2022/07/12 08:24:12;;;;;;;5.65;2.25;;;;;;;24.68;100.00;167033.38;4992637;28;20019;-59
2022/07/12 08:26:37;;;;;;;4.22;2.80;;;;;;;24.59;100.00;167008.84;4991054;28;20150;-58
2022/07/12 08:29:02;;;;;;;2.28;2.08;;;;;;;24.78;100.00;167059.22;4992715;28;20057;-59
2022/07/12 08:31:28;;;;;;;2.15;2.05;;;;;;;25.02;100.00;167123.16;5008097;28;20041;-58
2022/07/12 08:33:53;;;;;;;3.70;2.03;;;;;;;25.54;100.00;167259.28;4992077;28;20033;-58
2022/07/12 08:36:18;;;;;;;8.50;2.78;;;;;;;26.07;100.00;167398.09;4990966;28;20105;-58
2022/07/12 08:38:44;;;;;;;3.38;2.40;;;;;;;26.27;100.00;167452.59;4991663;28;20022;-58
2022/07/12 08:41:13;;;;;;;2.88;2.67;;;;;;;26.20;100.00;167432.19;4990585;28;20034;-58
2022/07/12 08:43:39;;;;;;;2.72;1.98;;;;;;;25.97;100.00;167373.59;4992624;28;20440;-59
2022/07/12 08:46:06;;;;;;;1.42;1.33;;;;;;;26.00;100.00;167380.38;4990896;28;20121;-58
2022/07/12 08:48:34;;;;;;;1.70;1.60;;;;;;;25.74;100.00;167310.97;4992115;28;20286;-58
2022/07/12 08:51:01;;;;;;;2.17;2.07;;;;;;;25.81;100.00;167330.03;4991239;28;20038;-58
2022/07/12 08:53:27;;;;;;;1.92;1.83;;;;;;;25.87;100.00;167346.41;4991418;28;20461;-58
2022/07/12 08:55:52;;;;;;;1.98;1.73;;;;;;;25.76;100.00;167317.81;4990186;28;20481;-58
2022/07/12 08:58:18;;;;;;;2.85;2.35;;;;;;;25.94;100.00;167365.44;4988989;28;20060;-58
2022/07/12 09:00:44;;;;;;;3.60;2.65;;;;;;;25.78;100.00;167321.88;4984499;28;20449;-58
2022/07/12 09:03:12;;;;;;;2.38;2.22;;;;;;;26.42;100.00;167490.69;4989421;28;20088;-58
2022/07/12 09:05:37;;;;;;;2.40;2.20;;;;;;;26.56;100.00;167527.47;4988748;28;20050;-58
2022/07/12 09:08:09;;;;;;;16.27;1.90;;;;;;;26.53;100.00;167520.69;4992103;28;20022;-59
2022/07/12 09:10:54;;;;;;;4.13;2.42;;;;;;;26.59;100.00;167537.00;4989012;28;20046;-58
2022/07/12 09:13:21;;;;;;;2.55;2.35;;;;;;;26.34;100.00;167468.91;4991198;28;20053;-58
2022/07/12 09:15:47;;;;;;;2.33;2.13;;;;;;;26.62;100.00;167542.47;4992627;28;20033;-58
2022/07/12 09:18:15;;;;;;;3.53;1.70;;;;;;;26.20;100.00;167433.53;5006298;28;20033;-58
2022/07/12 09:20:46;;;;;;;2.33;1.60;;;;;;;26.47;100.00;167504.34;4990656;28;20497;-58
2022/07/12 09:23:11;;;;;;;3.38;2.35;;;;;;;26.05;100.00;167392.63;4991885;28;20022;-58
2022/07/12 09:25:38;;;;;;;1.90;1.80;;;;;;;26.47;100.00;167504.34;4989988;28;20038;-58
2022/07/12 09:28:06;;;;;;;2.83;2.60;;;;;;;26.65;100.00;167550.59;4999171;28;20505;-59
2022/07/12 09:30:32;;;;;;;3.80;2.30;;;;;;;26.59;100.00;167535.63;4999902;28;20046;-59
2022/07/12 09:36:07;;;;;;;2.35;2.15;;;;;;;26.88;100.00;167613.31;4999481;28;20533;-59
2022/07/12 09:38:35;;;;;;;7.13;2.30;;;;;;;27.05;100.00;167656.91;4999826;28;20136;-59
2022/07/12 09:41:01;;;;;;;3.03;1.25;;;;;;;26.83;100.00;167599.72;4998054;28;20049;-59
2022/07/12 09:43:27;;;;;;;4.22;1.40;;;;;;;27.37;100.00;167741.28;5003158;28;20108;-59
2022/07/12 09:45:53;;;;;;;2.28;1.70;;;;;;;27.59;100.00;167798.59;5000141;28;20038;-59
2022/07/12 09:48:22;;;;;;;1.63;1.52;;;;;;;27.48;100.00;167769.94;5007054;28;20038;-59
2022/07/12 09:50:49;;;;;;;2.20;2.05;;;;;;;27.13;100.00;167677.31;4998808;28;20069;-58
2022/07/12 09:53:20;;;;;;;4.10;1.70;;;;;;;27.02;100.00;167648.69;5000070;28;20019;-58
2022/07/12 09:55:49;;;;;;;1.92;1.83;;;;;;;26.92;100.00;167622.84;4999243;28;20105;-59
2022/07/12 09:58:19;;;;;;;6.07;1.40;;;;;;;26.46;100.00;167501.63;4995773;28;20109;-59
2022/07/12 10:00:44;;;;;;;3.83;2.03;;;;;;;26.55;100.00;167526.09;4989816;28;20042;-59
2022/07/12 10:03:12;;;;;;;2.60;1.90;;;;;;;26.41;100.00;167487.97;4991016;28;20101;-58
2022/07/12 10:05:42;;;;;;;4.25;1.80;;;;;;;26.36;100.00;167474.38;4990020;28;20050;-59
2022/07/12 10:08:08;;;;;;;2.47;2.28;;;;;;;25.87;100.00;167345.00;4989973;28;20544;-59
2022/07/12 10:10:35;;;;;;;4.50;2.63;;;;;;;26.05;100.00;167394.03;4988248;28;20129;-59
2022/07/12 10:13:01;;;;;;;2.75;2.35;;;;;;;26.45;100.00;167498.88;4975660;28;20030;-58
2022/07/12 10:15:30;;;;;;;2.90;2.10;;;;;;;26.73;100.00;167572.41;4969309;28;20042;-59
2022/07/12 10:18:00;;;;;;;3.40;1.40;;;;;;;26.60;100.00;167538.34;4970105;28;20026;-59
2022/07/12 10:20:27;;;;;;;1.92;1.55;;;;;;;27.02;100.00;167650.09;4988026;28;20069;-59
2022/07/12 10:22:54;;;;;;;2.03;1.83;;;;;;;27.37;100.00;167741.28;4990174;28;20029;-59
2022/07/12 10:25:25;;;;;;;2.40;1.85;;;;;;;26.85;100.00;167605.13;4985935;28;20537;-59
2022/07/12 10:27:50;;;;;;;3.00;1.55;;;;;;;26.23;100.00;167441.72;4990217;28;20054;-58
2022/07/12 10:30:19;;;;;;;6.00;1.35;;;;;;;26.27;100.00;167452.59;4988801;28;20528;-58
2022/07/12 10:32:46;;;;;;;1.58;1.35;;;;;;;26.98;100.00;167637.84;4989660;28;20383;-58
2022/07/12 10:35:13;;;;;;;5.20;2.00;;;;;;;27.32;100.00;167727.69;4980828;28;20449;-60
2022/07/12 10:37:39;;;;;;;1.70;1.15;;;;;;;27.60;100.00;167802.66;4989884;28;20023;-59
2022/07/12 10:40:15;;;;;;;3.80;1.08;;;;;;;27.60;100.00;167801.28;4985064;28;20046;-59
2022/07/12 10:43:03;;;;;;;3.40;2.20;;;;;;;27.88;100.00;167876.22;4987877;28;20034;-59
2022/07/12 10:45:40;;;;;;;1.23;1.02;;;;;;;28.17;100.00;167953.94;4974614;28;20043;-59
2022/07/12 10:48:06;;;;;;;2.57;1.40;;;;;;;28.14;100.00;167945.75;4987008;28;20101;-59
2022/07/12 10:50:41;;;;;;;1.35;1.20;;;;;;;27.19;100.00;167695.03;4986520;28;20545;-56
2022/07/12 10:53:18;;;;;;;1.50;0.90;;;;;;;27.31;100.00;167726.34;4989170;28;20026;-57
2022/07/12 10:56:06;;;;;;;1.58;1.38;;;;;;;27.80;100.00;167854.41;4990153;28;20042;-57
2022/07/12 10:58:36;;;;;;;2.28;1.20;;;;;;;27.88;100.00;167874.88;5001611;28;20457;-56
2022/07/12 11:01:04;;;;;;;3.08;0.88;;;;;;;28.03;100.00;167915.75;5001244;28;20133;-57
2022/07/12 11:03:46;;;;;;;1.00;1.00;;;;;;;28.20;100.00;167959.38;4992897;28;20076;-56
2022/07/12 11:06:14;;;;;;;2.10;1.05;;;;;;;28.26;100.00;167975.75;5002481;28;20046;-56
2022/07/12 11:08:59;;;;;;;0.70;0.63;;;;;;;28.57;100.00;168057.47;5000390;28;20022;-56
2022/07/12 11:11:27;;;;;;;1.45;0.80;;;;;;;29.12;100.00;168204.72;5002834;28;20420;-57
2022/07/12 11:13:54;;;;;;;0.93;0.93;;;;;;;28.94;100.00;168155.66;5004384;28;20015;-56
2022/07/12 11:16:20;;;;;;;1.35;1.00;;;;;;;29.05;100.00;168184.25;5000646;28;20030;-56
2022/07/12 11:18:46;;;;;;;2.45;0.70;;;;;;;29.26;100.00;168240.16;5004208;28;20390;-57